sensor_id;sensor_type;location;lat;lon;timestamp;pressure;altitude;pressure_sealevel;temperature;humidity
53246;BME280;39569;51.090;-1.786;2023-05-02T00:00:16;101602.13;;;20.11;46.31
53246;BME280;39569;51.090;-1.786;2023-05-02T00:02:43;101600.88;;;20.14;46.19
53246;BME280;39569;51.090;-1.786;2023-05-02T00:05:12;101607.13;;;20.14;46.43
53246;BME280;39569;51.090;-1.786;2023-05-02T00:07:38;101599.41;;;20.11;46.19
53246;BME280;39569;51.090;-1.786;2023-05-02T00:10:07;101604.84;;;20.11;46.12
53246;BME280;39569;51.090;-1.786;2023-05-02T00:12:34;101608.44;;;19.99;46.32
53246;BME280;39569;51.090;-1.786;2023-05-02T00:15:01;101610.34;;;19.92;46.42
53246;BME280;39569;51.090;-1.786;2023-05-02T00:17:28;101600.59;;;19.84;46.30
53246;BME280;39569;51.090;-1.786;2023-05-02T00:19:54;101600.38;;;19.79;46.46
53246;BME280;39569;51.090;-1.786;2023-05-02T00:22:23;101603.28;;;19.78;46.63
53246;BME280;39569;51.090;-1.786;2023-05-02T00:24:49;101601.03;;;19.75;46.68
53246;BME280;39569;51.090;-1.786;2023-05-02T00:27:16;101599.56;;;19.79;46.54
53246;BME280;39569;51.090;-1.786;2023-05-02T00:29:43;101602.25;;;19.72;46.36
53246;BME280;39569;51.090;-1.786;2023-05-02T00:32:12;101602.69;;;19.69;46.30
53246;BME280;39569;51.090;-1.786;2023-05-02T00:34:39;101616.06;;;19.64;46.34
53246;BME280;39569;51.090;-1.786;2023-05-02T00:37:06;101612.72;;;19.55;46.24
53246;BME280;39569;51.090;-1.786;2023-05-02T00:39:34;101611.06;;;19.48;46.35
53246;BME280;39569;51.090;-1.786;2023-05-02T00:42:01;101609.00;;;19.43;46.63
53246;BME280;39569;51.090;-1.786;2023-05-02T00:44:28;101605.44;;;19.36;46.52
53246;BME280;39569;51.090;-1.786;2023-05-02T00:46:55;101612.16;;;19.34;46.58
53246;BME280;39569;51.090;-1.786;2023-05-02T00:49:22;101615.22;;;19.31;46.67
53246;BME280;39569;51.090;-1.786;2023-05-02T00:51:49;101610.06;;;19.36;46.43
53246;BME280;39569;51.090;-1.786;2023-05-02T00:54:16;101619.00;;;19.30;46.40
53246;BME280;39569;51.090;-1.786;2023-05-02T00:56:44;101607.31;;;19.29;46.28
53246;BME280;39569;51.090;-1.786;2023-05-02T00:59:12;101615.25;;;19.24;46.43
53246;BME280;39569;51.090;-1.786;2023-05-02T01:01:48;101615.44;;;19.16;46.51
53246;BME280;39569;51.090;-1.786;2023-05-02T01:04:22;101619.19;;;19.09;46.31
53246;BME280;39569;51.090;-1.786;2023-05-02T01:07:01;101618.56;;;19.07;46.36
53246;BME280;39569;51.090;-1.786;2023-05-02T01:09:39;101622.13;;;19.01;46.80
53246;BME280;39569;51.090;-1.786;2023-05-02T01:12:18;101616.28;;;18.91;47.15
53246;BME280;39569;51.090;-1.786;2023-05-02T01:14:52;101620.25;;;18.95;46.97
53246;BME280;39569;51.090;-1.786;2023-05-02T01:17:19;101622.09;;;18.81;47.04
53246;BME280;39569;51.090;-1.786;2023-05-02T01:19:51;101621.06;;;19.02;46.87
53246;BME280;39569;51.090;-1.786;2023-05-02T01:22:20;101624.63;;;19.02;46.42
53246;BME280;39569;51.090;-1.786;2023-05-02T01:24:52;101616.91;;;18.93;46.74
53246;BME280;39569;51.090;-1.786;2023-05-02T01:27:27;101622.97;;;18.88;46.93
53246;BME280;39569;51.090;-1.786;2023-05-02T01:29:59;101633.97;;;18.87;47.00
53246;BME280;39569;51.090;-1.786;2023-05-02T01:32:28;101631.25;;;18.87;46.97
53246;BME280;39569;51.090;-1.786;2023-05-02T01:34:58;101630.84;;;18.83;47.05
53246;BME280;39569;51.090;-1.786;2023-05-02T01:37:29;101632.28;;;18.79;46.67
53246;BME280;39569;51.090;-1.786;2023-05-02T01:39:58;101631.88;;;18.76;46.77
53246;BME280;39569;51.090;-1.786;2023-05-02T01:42:26;101639.75;;;18.57;46.83
53246;BME280;39569;51.090;-1.786;2023-05-02T01:44:54;101639.75;;;18.57;46.77
53246;BME280;39569;51.090;-1.786;2023-05-02T01:47:23;101632.69;;;18.63;46.67
53246;BME280;39569;51.090;-1.786;2023-05-02T01:49:51;101642.63;;;18.49;46.78
53246;BME280;39569;51.090;-1.786;2023-05-02T01:52:20;101635.34;;;18.50;46.70
53246;BME280;39569;51.090;-1.786;2023-05-02T01:54:49;101628.78;;;18.25;47.07
53246;BME280;39569;51.090;-1.786;2023-05-02T01:57:17;101633.34;;;18.18;47.33
53246;BME280;39569;51.090;-1.786;2023-05-02T01:59:45;101637.28;;;18.22;47.53
53246;BME280;39569;51.090;-1.786;2023-05-02T02:02:14;101627.34;;;18.29;47.26
53246;BME280;39569;51.090;-1.786;2023-05-02T02:04:44;101635.47;;;18.35;46.93
53246;BME280;39569;51.090;-1.786;2023-05-02T02:07:13;101634.41;;;18.23;47.29
53246;BME280;39569;51.090;-1.786;2023-05-02T02:09:40;101640.19;;;18.14;47.34
53246;BME280;39569;51.090;-1.786;2023-05-02T02:12:11;101641.69;;;18.29;47.96
53246;BME280;39569;51.090;-1.786;2023-05-02T02:14:41;101630.03;;;18.22;47.86
53246;BME280;39569;51.090;-1.786;2023-05-02T02:17:12;101638.75;;;18.18;47.96
53246;BME280;39569;51.090;-1.786;2023-05-02T02:19:42;101648.69;;;18.11;48.33
53246;BME280;39569;51.090;-1.786;2023-05-02T02:22:12;101650.38;;;18.12;48.48
53246;BME280;39569;51.090;-1.786;2023-05-02T02:24:40;101646.41;;;18.08;48.58
53246;BME280;39569;51.090;-1.786;2023-05-02T02:27:07;101648.53;;;18.19;48.42
53246;BME280;39569;51.090;-1.786;2023-05-02T02:29:33;101657.84;;;18.16;48.32
53246;BME280;39569;51.090;-1.786;2023-05-02T02:32:00;101653.88;;;18.06;48.43
53246;BME280;39569;51.090;-1.786;2023-05-02T02:34:27;101660.78;;;18.15;48.46
53246;BME280;39569;51.090;-1.786;2023-05-02T02:36:58;101659.06;;;18.07;48.48
53246;BME280;39569;51.090;-1.786;2023-05-02T02:39:40;101663.66;;;18.07;48.65
53246;BME280;39569;51.090;-1.786;2023-05-02T02:42:13;101667.44;;;18.12;48.37
53246;BME280;39569;51.090;-1.786;2023-05-02T02:44:48;101668.25;;;18.13;48.22
53246;BME280;39569;51.090;-1.786;2023-05-02T02:47:22;101670.31;;;18.11;47.82
53246;BME280;39569;51.090;-1.786;2023-05-02T02:49:54;101669.88;;;18.07;47.91
53246;BME280;39569;51.090;-1.786;2023-05-02T02:52:31;101676.56;;;18.11;47.86
53246;BME280;39569;51.090;-1.786;2023-05-02T02:55:07;101669.50;;;18.10;47.92
53246;BME280;39569;51.090;-1.786;2023-05-02T02:57:39;101671.78;;;18.07;48.05
53246;BME280;39569;51.090;-1.786;2023-05-02T03:00:11;101668.53;;;18.31;47.41
53246;BME280;39569;51.090;-1.786;2023-05-02T03:02:40;101680.81;;;18.27;47.45
53246;BME280;39569;51.090;-1.786;2023-05-02T03:05:09;101675.78;;;18.24;47.40
53246;BME280;39569;51.090;-1.786;2023-05-02T03:07:38;101684.53;;;18.19;47.47
53246;BME280;39569;51.090;-1.786;2023-05-02T03:10:06;101688.03;;;18.20;47.48
53246;BME280;39569;51.090;-1.786;2023-05-02T03:12:33;101690.25;;;18.03;47.57
53246;BME280;39569;51.090;-1.786;2023-05-02T03:15:08;101698.00;;;18.13;47.44
53246;BME280;39569;51.090;-1.786;2023-05-02T03:17:39;101690.84;;;17.99;47.42
53246;BME280;39569;51.090;-1.786;2023-05-02T03:20:07;101693.56;;;17.99;47.61
53246;BME280;39569;51.090;-1.786;2023-05-02T03:22:33;101685.66;;;18.04;47.23
53246;BME280;39569;51.090;-1.786;2023-05-02T03:25:02;101689.16;;;17.98;47.38
53246;BME280;39569;51.090;-1.786;2023-05-02T03:27:29;101689.72;;;17.87;47.65
53246;BME280;39569;51.090;-1.786;2023-05-02T03:29:56;101700.44;;;17.74;47.70
53246;BME280;39569;51.090;-1.786;2023-05-02T03:32:23;101703.41;;;17.79;47.69
53246;BME280;39569;51.090;-1.786;2023-05-02T03:34:49;101706.16;;;17.85;47.37
53246;BME280;39569;51.090;-1.786;2023-05-02T03:37:16;101706.22;;;17.64;47.58
53246;BME280;39569;51.090;-1.786;2023-05-02T03:39:43;101705.56;;;17.62;47.55
53246;BME280;39569;51.090;-1.786;2023-05-02T03:42:11;101699.63;;;17.73;47.38
53246;BME280;39569;51.090;-1.786;2023-05-02T03:44:38;101709.63;;;17.51;47.84
53246;BME280;39569;51.090;-1.786;2023-05-02T03:47:04;101711.78;;;17.62;47.65
53246;BME280;39569;51.090;-1.786;2023-05-02T03:49:33;101713.06;;;17.66;47.46
53246;BME280;39569;51.090;-1.786;2023-05-02T03:52:00;101720.38;;;17.66;47.39
53246;BME280;39569;51.090;-1.786;2023-05-02T03:54:31;101724.94;;;17.65;47.45
53246;BME280;39569;51.090;-1.786;2023-05-02T03:56:57;101730.00;;;17.33;48.04
53246;BME280;39569;51.090;-1.786;2023-05-02T03:59:25;101726.34;;;17.40;47.90
53246;BME280;39569;51.090;-1.786;2023-05-02T04:01:53;101727.56;;;17.38;47.72
53246;BME280;39569;51.090;-1.786;2023-05-02T04:04:19;101727.19;;;17.41;47.42
53246;BME280;39569;51.090;-1.786;2023-05-02T04:06:46;101724.41;;;17.55;46.86
53246;BME280;39569;51.090;-1.786;2023-05-02T04:09:13;101731.25;;;17.51;47.04
53246;BME280;39569;51.090;-1.786;2023-05-02T04:11:39;101733.22;;;17.22;47.52
53246;BME280;39569;51.090;-1.786;2023-05-02T04:14:06;101734.16;;;17.29;47.42
53246;BME280;39569;51.090;-1.786;2023-05-02T04:16:34;101733.66;;;17.25;47.61
53246;BME280;39569;51.090;-1.786;2023-05-02T04:19:01;101728.16;;;17.33;47.48
53246;BME280;39569;51.090;-1.786;2023-05-02T04:21:28;101743.13;;;17.36;47.25
53246;BME280;39569;51.090;-1.786;2023-05-02T04:23:55;101732.06;;;17.10;47.75
53246;BME280;39569;51.090;-1.786;2023-05-02T04:26:22;101731.88;;;17.11;47.78
53246;BME280;39569;51.090;-1.786;2023-05-02T04:28:49;101725.47;;;17.12;47.42
53246;BME280;39569;51.090;-1.786;2023-05-02T04:31:16;101729.69;;;17.00;47.93
53246;BME280;39569;51.090;-1.786;2023-05-02T04:33:44;101724.94;;;17.02;47.80
53246;BME280;39569;51.090;-1.786;2023-05-02T04:36:13;101731.88;;;17.11;47.45
53246;BME280;39569;51.090;-1.786;2023-05-02T04:38:40;101739.78;;;16.92;47.74
53246;BME280;39569;51.090;-1.786;2023-05-02T04:41:07;101747.78;;;16.85;47.88
53246;BME280;39569;51.090;-1.786;2023-05-02T04:43:34;101746.94;;;16.85;48.20
53246;BME280;39569;51.090;-1.786;2023-05-02T04:46:00;101740.59;;;16.92;47.90
53246;BME280;39569;51.090;-1.786;2023-05-02T04:48:27;101749.13;;;17.10;47.41
53246;BME280;39569;51.090;-1.786;2023-05-02T04:50:55;101749.47;;;17.07;47.51
53246;BME280;39569;51.090;-1.786;2023-05-02T04:53:22;101748.97;;;16.97;47.60
53246;BME280;39569;51.090;-1.786;2023-05-02T04:55:49;101755.78;;;16.93;47.69
53246;BME280;39569;51.090;-1.786;2023-05-02T04:58:16;101753.53;;;16.97;47.60
53246;BME280;39569;51.090;-1.786;2023-05-02T05:00:43;101756.28;;;17.03;47.45
53246;BME280;39569;51.090;-1.786;2023-05-02T05:03:10;101759.06;;;17.10;47.46
53246;BME280;39569;51.090;-1.786;2023-05-02T05:05:36;101766.72;;;17.06;47.59
53246;BME280;39569;51.090;-1.786;2023-05-02T05:08:05;101774.38;;;17.24;47.34
53246;BME280;39569;51.090;-1.786;2023-05-02T05:10:32;101768.81;;;17.11;47.28
53246;BME280;39569;51.090;-1.786;2023-05-02T05:12:58;101771.63;;;17.17;46.95
53246;BME280;39569;51.090;-1.786;2023-05-02T05:15:25;101781.81;;;17.01;47.29
53246;BME280;39569;51.090;-1.786;2023-05-02T05:17:52;101780.88;;;17.08;47.31
53246;BME280;39569;51.090;-1.786;2023-05-02T05:20:19;101783.84;;;16.63;48.48
53246;BME280;39569;51.090;-1.786;2023-05-02T05:22:45;101779.06;;;17.15;47.72
53246;BME280;39569;51.090;-1.786;2023-05-02T05:25:13;101776.34;;;17.51;47.40
53246;BME280;39569;51.090;-1.786;2023-05-02T05:27:40;101775.97;;;17.18;48.22
53246;BME280;39569;51.090;-1.786;2023-05-02T05:30:07;101782.28;;;17.46;48.08
53246;BME280;39569;51.090;-1.786;2023-05-02T05:32:34;101786.91;;;17.74;47.96
53246;BME280;39569;51.090;-1.786;2023-05-02T05:35:01;101780.97;;;17.85;48.33
53246;BME280;39569;51.090;-1.786;2023-05-02T05:37:28;101787.53;;;17.97;48.40
53246;BME280;39569;51.090;-1.786;2023-05-02T05:39:55;101784.69;;;18.05;48.49
53246;BME280;39569;51.090;-1.786;2023-05-02T05:42:23;101785.00;;;18.50;47.80
53246;BME280;39569;51.090;-1.786;2023-05-02T05:44:50;101789.44;;;18.64;47.78
53246;BME280;39569;51.090;-1.786;2023-05-02T05:47:18;101790.81;;;19.01;47.33
53246;BME280;39569;51.090;-1.786;2023-05-02T05:49:46;101789.38;;;18.99;47.51
53246;BME280;39569;51.090;-1.786;2023-05-02T05:52:13;101798.53;;;18.98;47.90
53246;BME280;39569;51.090;-1.786;2023-05-02T05:54:39;101797.97;;;19.22;47.55
53246;BME280;39569;51.090;-1.786;2023-05-02T05:57:06;101805.97;;;19.43;47.16
53246;BME280;39569;51.090;-1.786;2023-05-02T05:59:35;101806.19;;;19.48;47.15
53246;BME280;39569;51.090;-1.786;2023-05-02T06:02:02;101811.03;;;19.66;46.95
53246;BME280;39569;51.090;-1.786;2023-05-02T06:04:29;101808.31;;;19.92;46.51
53246;BME280;39569;51.090;-1.786;2023-05-02T06:06:56;101813.09;;;19.83;47.01
53246;BME280;39569;51.090;-1.786;2023-05-02T06:09:23;101815.41;;;19.93;46.85
53246;BME280;39569;51.090;-1.786;2023-05-02T06:11:50;101821.66;;;20.00;47.05
53246;BME280;39569;51.090;-1.786;2023-05-02T06:14:17;101827.47;;;20.16;46.57
53246;BME280;39569;51.090;-1.786;2023-05-02T06:16:45;101826.88;;;20.27;46.50
53246;BME280;39569;51.090;-1.786;2023-05-02T06:19:12;101825.41;;;20.12;46.75
53246;BME280;39569;51.090;-1.786;2023-05-02T06:21:39;101830.47;;;20.21;46.64
53246;BME280;39569;51.090;-1.786;2023-05-02T06:24:06;101836.06;;;20.39;46.47
53246;BME280;39569;51.090;-1.786;2023-05-02T06:26:32;101830.84;;;19.92;47.57
53246;BME280;39569;51.090;-1.786;2023-05-02T06:28:59;101840.22;;;20.09;47.62
53246;BME280;39569;51.090;-1.786;2023-05-02T06:31:26;101837.28;;;20.11;47.59
53246;BME280;39569;51.090;-1.786;2023-05-02T06:33:55;101835.88;;;20.21;47.39
53246;BME280;39569;51.090;-1.786;2023-05-02T06:36:21;101829.16;;;20.43;47.04
53246;BME280;39569;51.090;-1.786;2023-05-02T06:38:48;101839.78;;;20.58;46.71
53246;BME280;39569;51.090;-1.786;2023-05-02T06:41:15;101826.25;;;20.25;47.48
53246;BME280;39569;51.090;-1.786;2023-05-02T06:43:41;101836.06;;;20.39;47.15
53246;BME280;39569;51.090;-1.786;2023-05-02T06:46:08;101831.25;;;20.41;47.43
53246;BME280;39569;51.090;-1.786;2023-05-02T06:48:35;101835.34;;;20.70;46.59
53246;BME280;39569;51.090;-1.786;2023-05-02T06:51:03;101841.84;;;20.69;46.99
53246;BME280;39569;51.090;-1.786;2023-05-02T06:53:30;101847.94;;;19.80;48.51
53246;BME280;39569;51.090;-1.786;2023-05-02T06:55:57;101846.28;;;20.31;47.44
53246;BME280;39569;51.090;-1.786;2023-05-02T06:58:24;101846.94;;;20.26;47.40
53246;BME280;39569;51.090;-1.786;2023-05-02T07:00:50;101850.44;;;20.46;47.22
53246;BME280;39569;51.090;-1.786;2023-05-02T07:03:17;101846.88;;;20.46;47.48
53246;BME280;39569;51.090;-1.786;2023-05-02T07:05:44;101847.28;;;20.63;47.13
53246;BME280;39569;51.090;-1.786;2023-05-02T07:08:12;101851.50;;;20.45;47.37
53246;BME280;39569;51.090;-1.786;2023-05-02T07:10:39;101841.09;;;20.23;47.95
53246;BME280;39569;51.090;-1.786;2023-05-02T07:13:05;101850.34;;;20.86;47.00
53246;BME280;39569;51.090;-1.786;2023-05-02T07:15:32;101844.78;;;21.25;46.16
53246;BME280;39569;51.090;-1.786;2023-05-02T07:17:59;101840.06;;;20.94;46.75
53246;BME280;39569;51.090;-1.786;2023-05-02T07:20:26;101848.34;;;20.55;47.43
53246;BME280;39569;51.090;-1.786;2023-05-02T07:22:53;101853.59;;;20.24;47.95
53246;BME280;39569;51.090;-1.786;2023-05-02T07:25:21;101849.44;;;20.28;48.20
53246;BME280;39569;51.090;-1.786;2023-05-02T07:27:47;101856.38;;;21.01;46.52
53246;BME280;39569;51.090;-1.786;2023-05-02T07:30:14;101848.34;;;20.55;47.41
53246;BME280;39569;51.090;-1.786;2023-05-02T07:32:41;101852.28;;;20.66;47.14
53246;BME280;39569;51.090;-1.786;2023-05-02T07:35:08;101848.00;;;20.96;46.67
53246;BME280;39569;51.090;-1.786;2023-05-02T07:37:35;101854.06;;;21.04;46.35
53246;BME280;39569;51.090;-1.786;2023-05-02T07:40:02;101848.19;;;21.14;46.36
53246;BME280;39569;51.090;-1.786;2023-05-02T07:42:30;101849.22;;;21.50;45.90
53246;BME280;39569;51.090;-1.786;2023-05-02T07:44:58;101851.13;;;21.06;46.65
53246;BME280;39569;51.090;-1.786;2023-05-02T07:47:25;101847.47;;;21.63;45.20
53246;BME280;39569;51.090;-1.786;2023-05-02T07:49:52;101847.53;;;21.56;45.39
53246;BME280;39569;51.090;-1.786;2023-05-02T07:52:19;101843.97;;;21.87;45.08
53246;BME280;39569;51.090;-1.786;2023-05-02T07:54:47;101845.09;;;22.04;44.81
53246;BME280;39569;51.090;-1.786;2023-05-02T07:57:14;101846.97;;;22.28;44.17
53246;BME280;39569;51.090;-1.786;2023-05-02T07:59:42;101849.56;;;22.41;44.03
53246;BME280;39569;51.090;-1.786;2023-05-02T08:02:09;101840.69;;;22.27;43.73
53246;BME280;39569;51.090;-1.786;2023-05-02T08:04:38;101849.09;;;22.87;43.20
53246;BME280;39569;51.090;-1.786;2023-05-02T08:07:04;101850.94;;;22.75;43.14
53246;BME280;39569;51.090;-1.786;2023-05-02T08:09:31;101854.09;;;22.90;42.70
53246;BME280;39569;51.090;-1.786;2023-05-02T08:11:58;101857.59;;;22.97;42.68
53246;BME280;39569;51.090;-1.786;2023-05-02T08:14:26;101867.41;;;22.80;43.24
53246;BME280;39569;51.090;-1.786;2023-05-02T08:16:55;101868.34;;;22.49;43.32
53246;BME280;39569;51.090;-1.786;2023-05-02T08:19:21;101871.66;;;22.08;43.73
53246;BME280;39569;51.090;-1.786;2023-05-02T08:21:48;101864.69;;;22.37;43.80
53246;BME280;39569;51.090;-1.786;2023-05-02T08:24:15;101872.72;;;22.50;43.21
53246;BME280;39569;51.090;-1.786;2023-05-02T08:26:42;101880.66;;;22.58;43.24
53246;BME280;39569;51.090;-1.786;2023-05-02T08:29:08;101889.38;;;22.17;43.80
53246;BME280;39569;51.090;-1.786;2023-05-02T08:31:36;101888.47;;;22.23;43.82
53246;BME280;39569;51.090;-1.786;2023-05-02T08:34:04;101882.53;;;22.76;43.06
53246;BME280;39569;51.090;-1.786;2023-05-02T08:36:31;101891.19;;;22.48;43.87
53246;BME280;39569;51.090;-1.786;2023-05-02T08:38:58;101887.09;;;22.64;43.19
53246;BME280;39569;51.090;-1.786;2023-05-02T08:41:28;101892.63;;;22.01;44.47
53246;BME280;39569;51.090;-1.786;2023-05-02T08:43:56;101886.66;;;23.03;42.86
53246;BME280;39569;51.090;-1.786;2023-05-02T08:46:23;101886.47;;;22.98;42.79
53246;BME280;39569;51.090;-1.786;2023-05-02T08:48:51;101885.78;;;23.20;42.39
53246;BME280;39569;51.090;-1.786;2023-05-02T08:51:22;101882.22;;;23.97;41.30
53246;BME280;39569;51.090;-1.786;2023-05-02T08:53:51;101875.44;;;24.00;41.04
53246;BME280;39569;51.090;-1.786;2023-05-02T08:56:18;101869.19;;;23.70;42.18
53246;BME280;39569;51.090;-1.786;2023-05-02T08:58:44;101883.94;;;24.33;40.82
53246;BME280;39569;51.090;-1.786;2023-05-02T09:01:13;101891.84;;;23.70;41.60
53246;BME280;39569;51.090;-1.786;2023-05-02T09:03:42;101889.28;;;24.28;40.93
53246;BME280;39569;51.090;-1.786;2023-05-02T09:06:11;101903.28;;;24.20;40.68
53246;BME280;39569;51.090;-1.786;2023-05-02T09:08:40;101899.16;;;24.52;40.04
53246;BME280;39569;51.090;-1.786;2023-05-02T09:11:09;101907.09;;;24.42;40.02
53246;BME280;39569;51.090;-1.786;2023-05-02T09:13:36;101894.69;;;24.05;40.88
53246;BME280;39569;51.090;-1.786;2023-05-02T09:16:05;101899.59;;;23.85;41.13
53246;BME280;39569;51.090;-1.786;2023-05-02T09:18:33;101892.44;;;23.72;41.09
53246;BME280;39569;51.090;-1.786;2023-05-02T09:21:03;101897.72;;;24.26;40.36
53246;BME280;39569;51.090;-1.786;2023-05-02T09:23:34;101901.59;;;23.78;41.46
53246;BME280;39569;51.090;-1.786;2023-05-02T09:26:10;101909.47;;;23.86;40.98
53246;BME280;39569;51.090;-1.786;2023-05-02T09:28:38;101910.06;;;23.88;40.91
53246;BME280;39569;51.090;-1.786;2023-05-02T09:31:07;101912.88;;;23.81;40.88
53246;BME280;39569;51.090;-1.786;2023-05-02T09:33:35;101906.16;;;23.18;42.60
53246;BME280;39569;51.090;-1.786;2023-05-02T09:36:02;101905.75;;;24.10;41.19
53246;BME280;39569;51.090;-1.786;2023-05-02T09:38:29;101910.44;;;24.67;39.86
53246;BME280;39569;51.090;-1.786;2023-05-02T09:40:56;101919.13;;;24.99;39.08
53246;BME280;39569;51.090;-1.786;2023-05-02T09:43:24;101920.09;;;25.32;38.97
53246;BME280;39569;51.090;-1.786;2023-05-02T09:46:01;101923.00;;;24.68;39.20
53246;BME280;39569;51.090;-1.786;2023-05-02T09:48:31;101931.09;;;24.86;39.10
53246;BME280;39569;51.090;-1.786;2023-05-02T09:50:58;101930.66;;;24.78;39.37
53246;BME280;39569;51.090;-1.786;2023-05-02T09:53:26;101928.00;;;25.57;38.81
53246;BME280;39569;51.090;-1.786;2023-05-02T09:56:01;101927.59;;;25.25;38.82
53246;BME280;39569;51.090;-1.786;2023-05-02T09:58:30;101929.94;;;24.82;39.21
53246;BME280;39569;51.090;-1.786;2023-05-02T10:00:57;101930.94;;;25.39;38.75
53246;BME280;39569;51.090;-1.786;2023-05-02T10:03:26;101940.69;;;25.75;37.59
53246;BME280;39569;51.090;-1.786;2023-05-02T10:05:53;101944.25;;;25.47;38.13
53246;BME280;39569;51.090;-1.786;2023-05-02T10:08:21;101941.19;;;25.20;38.58
53246;BME280;39569;51.090;-1.786;2023-05-02T10:10:53;101938.19;;;25.33;38.22
53246;BME280;39569;51.090;-1.786;2023-05-02T10:13:22;101928.22;;;25.67;37.95
53246;BME280;39569;51.090;-1.786;2023-05-02T10:15:58;101935.84;;;25.65;37.76
53246;BME280;39569;51.090;-1.786;2023-05-02T10:18:32;101936.81;;;24.96;39.05
53246;BME280;39569;51.090;-1.786;2023-05-02T10:21:05;101937.00;;;25.69;38.28
53246;BME280;39569;51.090;-1.786;2023-05-02T10:23:33;101943.16;;;25.76;38.37
53246;BME280;39569;51.090;-1.786;2023-05-02T10:26:01;101945.56;;;26.01;37.19
53246;BME280;39569;51.090;-1.786;2023-05-02T10:28:29;101952.66;;;26.13;37.46
53246;BME280;39569;51.090;-1.786;2023-05-02T10:30:57;101943.28;;;26.43;37.58
53246;BME280;39569;51.090;-1.786;2023-05-02T10:33:27;101946.19;;;26.86;37.07
53246;BME280;39569;51.090;-1.786;2023-05-02T10:35:56;101935.44;;;26.68;37.26
53246;BME280;39569;51.090;-1.786;2023-05-02T10:38:23;101948.56;;;26.16;38.22
53246;BME280;39569;51.090;-1.786;2023-05-02T10:40:53;101950.91;;;25.96;38.39
53246;BME280;39569;51.090;-1.786;2023-05-02T10:43:25;101943.88;;;26.28;37.54
53246;BME280;39569;51.090;-1.786;2023-05-02T10:45:53;101939.50;;;26.98;36.11
53246;BME280;39569;51.090;-1.786;2023-05-02T10:48:23;101946.66;;;26.83;36.08
53246;BME280;39569;51.090;-1.786;2023-05-02T10:50:52;101951.06;;;27.00;36.16
53246;BME280;39569;51.090;-1.786;2023-05-02T10:53:30;101947.19;;;27.61;35.83
53246;BME280;39569;51.090;-1.786;2023-05-02T10:56:16;101945.41;;;27.98;34.46
53246;BME280;39569;51.090;-1.786;2023-05-02T10:58:46;101956.19;;;27.57;35.09
53246;BME280;39569;51.090;-1.786;2023-05-02T11:01:33;101952.81;;;27.71;33.69
53246;BME280;39569;51.090;-1.786;2023-05-02T11:04:04;101963.09;;;27.38;34.05
53246;BME280;39569;51.090;-1.786;2023-05-02T11:06:33;101960.13;;;27.23;35.08
53246;BME280;39569;51.090;-1.786;2023-05-02T11:09:30;101956.88;;;27.26;34.57
53246;BME280;39569;51.090;-1.786;2023-05-02T11:12:00;101951.59;;;27.19;34.90
53246;BME280;39569;51.090;-1.786;2023-05-02T11:14:46;101953.09;;;27.96;34.24
53246;BME280;39569;51.090;-1.786;2023-05-02T11:17:14;101950.50;;;28.11;34.16
53246;BME280;39569;51.090;-1.786;2023-05-02T11:25:47;101947.34;;;28.56;33.21
53246;BME280;39569;51.090;-1.786;2023-05-02T11:28:40;101946.44;;;28.19;33.40
53246;BME280;39569;51.090;-1.786;2023-05-02T11:31:08;101938.63;;;28.38;33.36
53246;BME280;39569;51.090;-1.786;2023-05-02T11:33:35;101933.47;;;29.30;33.05
53246;BME280;39569;51.090;-1.786;2023-05-02T11:36:02;101940.78;;;29.09;31.47
53246;BME280;39569;51.090;-1.786;2023-05-02T11:38:36;101929.31;;;29.27;30.58
53246;BME280;39569;51.090;-1.786;2023-05-02T11:41:03;101930.34;;;29.78;30.21
53246;BME280;39569;51.090;-1.786;2023-05-02T11:43:30;101924.41;;;29.34;30.34
53246;BME280;39569;51.090;-1.786;2023-05-02T11:45:58;101917.53;;;31.18;30.10
53246;BME280;39569;51.090;-1.786;2023-05-02T11:48:26;101899.63;;;34.47;24.58
53246;BME280;39569;51.090;-1.786;2023-05-02T11:50:54;101899.16;;;35.54;24.75
53246;BME280;39569;51.090;-1.786;2023-05-02T11:53:22;101905.47;;;36.26;21.86
53246;BME280;39569;51.090;-1.786;2023-05-02T11:55:52;101911.59;;;36.98;20.28
53246;BME280;39569;51.090;-1.786;2023-05-02T11:58:21;101911.84;;;36.48;21.62
53246;BME280;39569;51.090;-1.786;2023-05-02T12:00:50;101904.72;;;35.54;23.13
53246;BME280;39569;51.090;-1.786;2023-05-02T12:03:27;101912.59;;;33.64;25.08
53246;BME280;39569;51.090;-1.786;2023-05-02T12:05:55;101904.38;;;34.47;22.56
53246;BME280;39569;51.090;-1.786;2023-05-02T12:08:25;101909.69;;;35.16;23.76
53246;BME280;39569;51.090;-1.786;2023-05-02T12:10:54;101912.16;;;35.45;21.15
53246;BME280;39569;51.090;-1.786;2023-05-02T12:13:23;101914.59;;;34.79;23.61
53246;BME280;39569;51.090;-1.786;2023-05-02T12:15:52;101909.44;;;36.33;22.54
53246;BME280;39569;51.090;-1.786;2023-05-02T12:18:22;101903.41;;;38.17;20.60
53246;BME280;39569;51.090;-1.786;2023-05-02T12:20:50;101912.94;;;37.00;22.17
53246;BME280;39569;51.090;-1.786;2023-05-02T12:23:18;101914.13;;;35.04;23.16
53246;BME280;39569;51.090;-1.786;2023-05-02T12:25:46;101909.94;;;35.55;24.18
53246;BME280;39569;51.090;-1.786;2023-05-02T12:28:16;101918.78;;;35.71;22.94
53246;BME280;39569;51.090;-1.786;2023-05-02T12:30:45;101928.03;;;33.89;23.35
53246;BME280;39569;51.090;-1.786;2023-05-02T12:33:12;101936.41;;;34.85;22.45
53246;BME280;39569;51.090;-1.786;2023-05-02T12:35:40;101919.81;;;35.97;22.88
53246;BME280;39569;51.090;-1.786;2023-05-02T12:38:12;101925.47;;;36.28;22.13
53246;BME280;39569;51.090;-1.786;2023-05-02T12:40:46;101917.03;;;38.27;19.35
53246;BME280;39569;51.090;-1.786;2023-05-02T12:43:15;101917.63;;;38.67;20.85
53246;BME280;39569;51.090;-1.786;2023-05-02T12:45:42;101909.59;;;39.53;18.27
53246;BME280;39569;51.090;-1.786;2023-05-02T12:48:22;101910.75;;;40.47;18.19
53246;BME280;39569;51.090;-1.786;2023-05-02T12:50:50;101921.09;;;36.66;19.86
53246;BME280;39569;51.090;-1.786;2023-05-02T12:53:17;101930.03;;;35.88;21.90